Time;durP1;ratioP1;P1;durP2;ratioP2;P2;SDS_P1;SDS_P2;PMS_P1;PMS_P2;Temp;Humidity;BMP_temperature;BMP_pressure;BME280_temperature;BME280_humidity;BME280_pressure;Samples;Min_cycle;Max_cycle;Signal;HPM_P1;HPM_P2
2022/03/23 00:01:44;;;;;;;139.13;60.20;;;6.80;86.60;;;;;;4929630;29;20521;-69
2022/03/23 00:04:12;;;;;;;148.68;62.75;;;6.80;86.70;;;;;;4929284;29;20043;-69
2022/03/23 00:06:39;;;;;;;141.93;60.17;;;6.70;86.70;;;;;;4929535;29;20521;-69
2022/03/23 00:09:08;;;;;;;160.13;64.82;;;6.70;86.80;;;;;;4929158;29;20056;-69
2022/03/23 00:11:36;;;;;;;147.93;59.95;;;6.60;86.90;;;;;;4929123;29;20056;-69
2022/03/23 00:14:06;;;;;;;157.85;63.45;;;6.50;86.90;;;;;;4929445;29;20063;-69
2022/03/23 00:16:38;;;;;;;134.60;58.38;;;6.40;87.00;;;;;;4912040;29;20074;-69
2022/03/23 00:19:07;;;;;;;164.70;61.85;;;6.30;87.10;;;;;;4929030;29;20506;-69
2022/03/23 00:21:36;;;;;;;142.20;59.25;;;6.30;87.10;;;;;;4912120;29;20048;-69
2022/03/23 00:24:05;;;;;;;161.13;64.90;;;6.20;87.20;;;;;;4929116;29;20051;-69
2022/03/23 00:26:33;;;;;;;155.73;63.65;;;6.10;87.40;;;;;;4930554;29;20052;-70
2022/03/23 00:29:01;;;;;;;170.70;65.68;;;6.10;87.40;;;;;;4932361;29;20052;-68
2022/03/23 00:31:30;;;;;;;182.80;70.95;;;6.10;87.40;;;;;;4915305;29;20047;-69
2022/03/23 00:33:58;;;;;;;157.98;64.03;;;6.10;87.50;;;;;;4932086;29;20102;-69
2022/03/23 00:36:26;;;;;;;166.35;64.72;;;6.00;87.50;;;;;;4932841;29;20059;-69
2022/03/23 00:38:54;;;;;;;167.05;65.18;;;6.00;87.50;;;;;;4914617;29;20051;-69
2022/03/23 00:41:22;;;;;;;147.73;61.33;;;6.00;87.60;;;;;;4932026;29;20057;-69
2022/03/23 00:43:51;;;;;;;169.70;65.88;;;5.90;87.60;;;;;;4899489;29;20059;-69
2022/03/23 00:46:19;;;;;;;186.90;70.53;;;5.80;87.80;;;;;;4931972;29;20059;-68
2022/03/23 00:48:47;;;;;;;164.82;63.28;;;5.90;87.80;;;;;;4899281;29;20051;-69
2022/03/23 00:51:14;;;;;;;177.05;67.57;;;5.80;87.80;;;;;;4932591;29;20059;-68
2022/03/23 00:53:42;;;;;;;181.73;70.10;;;5.70;87.80;;;;;;4932001;29;20528;-69
2022/03/23 00:56:11;;;;;;;177.60;68.47;;;5.70;88.00;;;;;;4931039;29;20611;-69
2022/03/23 00:58:39;;;;;;;178.30;65.30;;;5.70;88.00;;;;;;4899374;29;20047;-68
2022/03/23 01:01:07;;;;;;;166.32;64.65;;;5.70;88.10;;;;;;4912950;29;20043;-69
2022/03/23 01:03:37;;;;;;;148.57;59.25;;;5.70;88.00;;;;;;4914160;29;20047;-69
2022/03/23 01:06:05;;;;;;;177.90;67.22;;;5.60;88.10;;;;;;4930079;29;20497;-70
2022/03/23 01:08:32;;;;;;;170.25;69.13;;;5.50;88.10;;;;;;4913229;29;20536;-68
2022/03/23 01:11:01;;;;;;;188.35;69.93;;;5.50;88.30;;;;;;4913282;29;20056;-69
2022/03/23 01:13:29;;;;;;;180.57;65.40;;;5.40;88.40;;;;;;4913138;29;20047;-69
2022/03/23 01:15:56;;;;;;;198.00;72.38;;;5.40;88.30;;;;;;4930303;29;20405;-69
2022/03/23 01:18:24;;;;;;;166.52;65.22;;;5.30;88.20;;;;;;4931267;29;20055;-69
2022/03/23 01:20:52;;;;;;;176.60;65.25;;;5.30;88.40;;;;;;4898753;29;20062;-70
2022/03/23 01:23:21;;;;;;;211.38;72.85;;;5.30;88.40;;;;;;4931510;29;20055;-70
2022/03/23 01:25:49;;;;;;;178.43;68.13;;;5.20;88.50;;;;;;4930741;29;20498;-69
2022/03/23 01:28:17;;;;;;;215.77;72.13;;;5.20;88.50;;;;;;4931863;29;20063;-69
2022/03/23 01:30:44;;;;;;;206.73;72.85;;;5.10;88.70;;;;;;4914265;29;20056;-69
2022/03/23 01:33:12;;;;;;;205.30;72.20;;;5.10;88.70;;;;;;4931697;29;20047;-69
2022/03/23 01:35:40;;;;;;;199.23;70.03;;;5.00;88.70;;;;;;4912751;29;20509;-70
2022/03/23 01:38:07;;;;;;;184.05;65.65;;;5.10;88.70;;;;;;4931019;29;20054;-69
2022/03/23 01:40:35;;;;;;;189.20;65.53;;;5.00;88.90;;;;;;4931140;29;20055;-70
2022/03/23 01:43:03;;;;;;;168.20;60.55;;;5.00;88.80;;;;;;4931480;29;20051;-69
2022/03/23 01:45:31;;;;;;;185.98;67.97;;;5.00;88.80;;;;;;4913718;29;20047;-70
2022/03/23 01:47:59;;;;;;;165.30;62.60;;;4.90;88.70;;;;;;4931147;29;20055;-69
2022/03/23 01:50:27;;;;;;;174.57;64.07;;;4.90;88.80;;;;;;4931348;29;20044;-69
2022/03/23 01:52:54;;;;;;;162.23;60.78;;;4.80;88.70;;;;;;4931392;29;20070;-70
2022/03/23 01:55:22;;;;;;;178.20;64.45;;;4.80;88.70;;;;;;4930897;29;20047;-70
2022/03/23 01:57:52;;;;;;;200.48;67.70;;;4.70;88.80;;;;;;4913520;29;20055;-69
2022/03/23 02:00:21;;;;;;;189.85;65.95;;;4.70;88.90;;;;;;4897237;29;20502;-69
2022/03/23 02:02:49;;;;;;;170.20;66.32;;;4.60;88.90;;;;;;4913597;29;20405;-69
2022/03/23 02:05:17;;;;;;;230.88;74.60;;;4.50;89.10;;;;;;4913727;29;20074;-70
2022/03/23 02:07:54;;;;;;;249.60;81.15;;;4.60;89.20;;;;;;4898972;29;20387;-70
2022/03/23 02:10:23;;;;;;;237.80;77.65;;;4.60;89.30;;;;;;4914172;29;20056;-70
2022/03/23 02:13:00;;;;;;;224.80;70.30;;;4.50;89.20;;;;;;4913417;29;20487;-69
2022/03/23 02:15:29;;;;;;;234.48;78.15;;;4.50;89.20;;;;;;4913834;29;20139;-69
2022/03/23 02:17:57;;;;;;;208.48;68.95;;;4.50;89.10;;;;;;4930786;29;20040;-69
2022/03/23 02:20:25;;;;;;;217.65;70.28;;;4.40;89.00;;;;;;4913639;29;20862;-69
2022/03/23 02:22:53;;;;;;;170.63;62.65;;;4.40;89.00;;;;;;4913681;29;20071;-69
2022/03/23 02:25:28;;;;;;;164.10;61.70;;;4.30;89.00;;;;;;4929689;29;20059;-69
2022/03/23 02:27:56;;;;;;;194.48;65.55;;;4.30;89.20;;;;;;4930247;29;20063;-69
2022/03/23 02:30:24;;;;;;;185.15;65.32;;;4.20;89.20;;;;;;4930677;29;20512;-70
2022/03/23 02:32:52;;;;;;;211.32;72.07;;;4.20;89.30;;;;;;4913056;29;20103;-70
2022/03/23 02:35:19;;;;;;;229.10;76.50;;;4.20;89.50;;;;;;4930720;29;20055;-69
2022/03/23 02:37:47;;;;;;;189.63;66.57;;;4.10;89.70;;;;;;4930252;29;20055;-69
2022/03/23 02:40:15;;;;;;;204.80;71.40;;;4.10;89.50;;;;;;4929657;29;20055;-68
2022/03/23 02:42:43;;;;;;;215.57;71.35;;;4.10;89.40;;;;;;4896734;29;20059;-70
2022/03/23 02:45:10;;;;;;;228.57;73.05;;;4.00;89.60;;;;;;4925535;29;20398;-68
2022/03/23 02:47:38;;;;;;;215.88;75.53;;;4.00;89.70;;;;;;4929901;29;20048;-68
2022/03/23 02:50:06;;;;;;;197.32;72.03;;;4.10;89.70;;;;;;4929499;29;20039;-68
2022/03/23 02:52:34;;;;;;;190.85;68.55;;;4.00;89.60;;;;;;4930518;29;20063;-68
2022/03/23 03:04:07;;;;;;;207.70;70.00;;;3.90;89.70;;;;;;4928265;29;20059;-68
2022/03/23 03:06:34;;;;;;;211.20;68.95;;;3.90;89.80;;;;;;4927995;29;20067;-69
2022/03/23 03:09:02;;;;;;;183.77;65.72;;;3.90;89.80;;;;;;4928350;29;20054;-68
2022/03/23 03:11:29;;;;;;;164.93;63.50;;;3.90;89.70;;;;;;4927924;29;20062;-69
2022/03/23 03:13:57;;;;;;;188.32;67.93;;;3.90;89.60;;;;;;4928557;29;20047;-69
2022/03/23 03:16:26;;;;;;;197.05;68.85;;;3.80;89.60;;;;;;4928863;29;20060;-69
2022/03/23 03:18:54;;;;;;;178.75;63.17;;;3.80;89.70;;;;;;4929808;29;20048;-69
2022/03/23 03:21:22;;;;;;;225.95;71.45;;;3.70;89.70;;;;;;4928713;29;20066;-69
2022/03/23 03:23:50;;;;;;;227.68;72.50;;;3.70;89.70;;;;;;4906821;29;20052;-69
2022/03/23 03:26:17;;;;;;;185.57;65.15;;;3.70;89.90;;;;;;4927965;29;20058;-69
2022/03/23 03:28:45;;;;;;;237.85;74.07;;;3.60;89.90;;;;;;4912636;29;20055;-69
2022/03/23 03:31:14;;;;;;;218.57;75.90;;;3.60;89.80;;;;;;4928791;29;20094;-69
2022/03/23 03:33:43;;;;;;;199.98;70.57;;;3.60;90.10;;;;;;4929500;29;20066;-69
2022/03/23 03:36:11;;;;;;;192.75;71.07;;;3.60;90.10;;;;;;4911237;29;20599;-69
2022/03/23 03:38:40;;;;;;;215.60;72.38;;;3.60;89.90;;;;;;4929061;29;20805;-69
2022/03/23 03:41:09;;;;;;;198.70;71.45;;;3.50;90.00;;;;;;4929443;29;20067;-69
2022/03/23 03:43:37;;;;;;;212.05;70.22;;;3.60;90.20;;;;;;4929292;29;20052;-69
2022/03/23 03:46:10;;;;;;;176.13;64.78;;;3.50;90.10;;;;;;4929424;29;20044;-69
2022/03/23 03:48:42;;;;;;;178.95;64.85;;;3.50;90.00;;;;;;4911848;29;20062;-69
2022/03/23 03:51:10;;;;;;;192.38;67.45;;;3.50;89.90;;;;;;4912468;29;20071;-68
2022/03/23 03:53:37;;;;;;;205.27;66.72;;;3.40;89.80;;;;;;4929463;29;20051;-69
2022/03/23 03:56:08;;;;;;;195.30;67.22;;;3.40;90.00;;;;;;4929744;29;20065;-69
2022/03/23 03:58:37;;;;;;;194.23;68.72;;;3.40;90.10;;;;;;4929496;29;20516;-69
2022/03/23 04:01:06;;;;;;;196.27;70.20;;;3.30;90.00;;;;;;4931544;29;20474;-69
2022/03/23 04:03:34;;;;;;;188.32;69.05;;;3.30;90.10;;;;;;4915942;29;20059;-69
2022/03/23 04:06:05;;;;;;;158.35;61.85;;;3.30;90.20;;;;;;4933223;29;20039;-70
2022/03/23 04:08:34;;;;;;;166.93;62.67;;;3.30;90.20;;;;;;4932729;29;20055;-69
2022/03/23 04:11:03;;;;;;;171.18;64.38;;;3.30;90.20;;;;;;4932487;29;20528;-69
2022/03/23 04:13:31;;;;;;;144.20;55.33;;;3.30;90.40;;;;;;4932400;29;20864;-69
2022/03/23 04:15:59;;;;;;;144.20;57.67;;;3.30;90.40;;;;;;4933077;29;20052;-69
2022/03/23 04:18:27;;;;;;;138.23;55.70;;;3.30;90.40;;;;;;4915311;29;20048;-69
2022/03/23 04:20:56;;;;;;;144.80;55.15;;;3.30;90.40;;;;;;4931812;29;20070;-70
2022/03/23 04:23:23;;;;;;;146.63;56.35;;;3.30;90.30;;;;;;4932791;29;20047;-69
2022/03/23 04:25:51;;;;;;;135.82;54.35;;;3.30;90.20;;;;;;4931930;29;20784;-70
2022/03/23 04:28:21;;;;;;;170.50;58.70;;;3.30;90.10;;;;;;4915638;29;20048;-70
2022/03/23 04:30:48;;;;;;;179.65;61.55;;;3.30;90.20;;;;;;4915237;29;20055;-70
2022/03/23 04:33:16;;;;;;;164.27;59.60;;;3.30;90.40;;;;;;4933139;29;20052;-69
2022/03/23 04:35:44;;;;;;;184.48;63.95;;;3.30;90.40;;;;;;4932110;29;20048;-70
2022/03/23 04:38:11;;;;;;;205.55;71.38;;;3.20;90.30;;;;;;4915855;29;20052;-70
2022/03/23 04:40:39;;;;;;;170.57;65.20;;;3.30;90.40;;;;;;4932570;29;20079;-70
2022/03/23 04:43:06;;;;;;;177.02;62.40;;;3.30;90.40;;;;;;4931317;29;20520;-70
2022/03/23 04:45:34;;;;;;;167.73;59.97;;;3.30;90.50;;;;;;4931774;29;20729;-69
2022/03/23 04:48:02;;;;;;;152.05;58.13;;;3.30;90.40;;;;;;4932966;29;20078;-70
2022/03/23 04:50:30;;;;;;;157.32;60.08;;;3.30;90.20;;;;;;4932115;29;20074;-69
2022/03/23 04:52:57;;;;;;;147.65;56.28;;;3.20;90.20;;;;;;4931738;29;20051;-69
2022/03/23 04:55:25;;;;;;;168.10;62.35;;;3.20;90.30;;;;;;4932325;29;20047;-69
2022/03/23 04:57:53;;;;;;;163.95;61.03;;;3.20;90.30;;;;;;4915054;29;20497;-70
2022/03/23 05:00:21;;;;;;;185.30;64.97;;;3.20;90.40;;;;;;4932288;29;20387;-70
2022/03/23 05:02:49;;;;;;;165.82;60.92;;;3.10;90.30;;;;;;4914797;29;20050;-69
2022/03/23 05:05:18;;;;;;;163.50;61.20;;;3.10;90.30;;;;;;4915244;29;20410;-70
2022/03/23 05:07:46;;;;;;;146.05;57.20;;;3.10;90.40;;;;;;4931732;29;20071;-69
2022/03/23 05:10:14;;;;;;;165.98;62.75;;;3.00;90.40;;;;;;4931979;29;20451;-69
2022/03/23 05:12:44;;;;;;;177.95;61.47;;;3.00;90.40;;;;;;4931158;29;20055;-70
2022/03/23 05:15:14;;;;;;;153.63;58.03;;;3.00;90.50;;;;;;4914742;29;20052;-69
2022/03/23 05:17:44;;;;;;;158.15;60.15;;;3.00;90.60;;;;;;4931112;29;20071;-70
2022/03/23 05:20:14;;;;;;;150.98;57.63;;;3.00;90.60;;;;;;4932076;29;20052;-70
2022/03/23 05:22:42;;;;;;;144.85;53.92;;;3.00;90.40;;;;;;4931726;29;20055;-69
2022/03/23 05:25:10;;;;;;;155.07;56.72;;;2.90;90.40;;;;;;4914534;29;20436;-69
2022/03/23 05:27:39;;;;;;;146.77;54.85;;;2.90;90.40;;;;;;4914141;29;20050;-69
2022/03/23 05:30:10;;;;;;;148.85;54.72;;;2.80;90.50;;;;;;4931504;29;20055;-70
2022/03/23 05:32:39;;;;;;;202.65;66.95;;;2.80;90.50;;;;;;4927777;29;20047;-69
2022/03/23 05:35:09;;;;;;;188.82;67.07;;;2.80;90.50;;;;;;4918546;29;20051;-70
2022/03/23 05:37:36;;;;;;;165.27;60.75;;;2.80;90.60;;;;;;4911293;29;20066;-68
2022/03/23 05:40:10;;;;;;;169.45;59.28;;;2.80;90.70;;;;;;4913451;29;20588;-68
2022/03/23 05:42:39;;;;;;;183.95;62.63;;;2.80;90.50;;;;;;4931124;29;20048;-69
2022/03/23 05:45:08;;;;;;;183.25;59.00;;;2.80;90.50;;;;;;4928828;29;20060;-68
2022/03/23 05:47:37;;;;;;;185.05;63.95;;;2.70;90.50;;;;;;4929486;29;20047;-68
2022/03/23 05:50:06;;;;;;;153.80;59.05;;;2.70;90.50;;;;;;4930670;29;20064;-69
2022/03/23 05:52:35;;;;;;;145.95;55.03;;;2.70;90.50;;;;;;4930665;29;20063;-69
2022/03/23 05:55:05;;;;;;;138.18;52.92;;;2.60;90.30;;;;;;4930939;29;20040;-69
2022/03/23 05:57:33;;;;;;;131.30;54.20;;;2.60;90.30;;;;;;4923877;29;20052;-69
2022/03/23 06:00:01;;;;;;;132.07;52.90;;;2.50;90.30;;;;;;4930041;29;20482;-69
2022/03/23 06:02:39;;;;;;;167.32;58.45;;;2.50;90.40;;;;;;4924535;29;20055;-70
2022/03/23 06:05:07;;;;;;;186.75;61.08;;;2.40;90.40;;;;;;4930122;29;20055;-70
2022/03/23 06:07:35;;;;;;;177.88;60.83;;;2.40;90.50;;;;;;4897560;29;20085;-70
2022/03/23 06:10:05;;;;;;;202.98;66.97;;;2.40;90.70;;;;;;4930249;29;20046;-69
2022/03/23 06:12:32;;;;;;;147.90;55.47;;;2.40;90.90;;;;;;4930817;29;20501;-69
2022/03/23 06:15:00;;;;;;;190.20;62.95;;;2.40;90.80;;;;;;4928523;29;20062;-69
2022/03/23 06:17:27;;;;;;;225.57;70.68;;;2.40;90.70;;;;;;4911683;29;20532;-69
2022/03/23 06:19:55;;;;;;;177.25;61.10;;;2.40;90.90;;;;;;4907237;29;20057;-69
2022/03/23 06:22:22;;;;;;;166.25;58.20;;;2.40;90.90;;;;;;4928698;29;20058;-69
2022/03/23 06:24:53;;;;;;;201.35;64.57;;;2.40;90.80;;;;;;4927650;29;20505;-69
2022/03/23 06:27:21;;;;;;;204.10;66.80;;;2.40;90.80;;;;;;4929017;29;20054;-69
2022/03/23 06:29:48;;;;;;;201.18;66.32;;;2.40;90.80;;;;;;4920773;29;20062;-69
2022/03/23 06:32:17;;;;;;;215.50;67.40;;;2.50;91.00;;;;;;4927379;29;20056;-69
2022/03/23 06:34:45;;;;;;;169.85;61.38;;;2.50;91.00;;;;;;4926764;29;20048;-69
2022/03/23 06:37:12;;;;;;;182.90;60.38;;;2.50;90.90;;;;;;4904680;29;20056;-69
2022/03/23 06:39:40;;;;;;;169.13;58.90;;;2.50;90.80;;;;;;4924220;29;20075;-69
2022/03/23 06:42:08;;;;;;;206.65;67.43;;;2.40;90.70;;;;;;4928069;29;20078;-68
2022/03/23 06:44:38;;;;;;;190.55;63.53;;;2.50;90.90;;;;;;4929932;29;20056;-69
2022/03/23 06:47:06;;;;;;;194.30;63.70;;;2.50;91.00;;;;;;4930287;29;20052;-68
2022/03/23 06:49:34;;;;;;;229.73;73.03;;;2.50;91.10;;;;;;4928875;29;20059;-69
2022/03/23 06:52:01;;;;;;;179.48;65.63;;;2.60;91.10;;;;;;4929278;29;20422;-69
2022/03/23 06:54:29;;;;;;;177.02;64.43;;;2.60;91.00;;;;;;4929641;29;20062;-69
2022/03/23 06:56:57;;;;;;;166.25;60.53;;;2.60;90.90;;;;;;4928384;29;20818;-68
2022/03/23 06:59:25;;;;;;;161.48;60.25;;;2.70;90.90;;;;;;4910192;29;20047;-69
2022/03/23 07:01:52;;;;;;;167.07;61.58;;;2.70;91.00;;;;;;4927945;29;20054;-69
2022/03/23 07:04:24;;;;;;;177.35;66.07;;;2.80;91.00;;;;;;4911529;29;20391;-69
2022/03/23 07:06:53;;;;;;;177.10;67.03;;;2.80;91.00;;;;;;4920855;29;20167;-69
2022/03/23 07:09:33;;;;;;;164.23;63.17;;;2.90;91.10;;;;;;4928739;29;20055;-69
2022/03/23 07:12:03;;;;;;;165.80;61.80;;;3.00;91.10;;;;;;4918032;29;20405;-69
2022/03/23 07:14:32;;;;;;;154.13;58.50;;;3.10;91.00;;;;;;4926040;29;20059;-69
2022/03/23 07:17:00;;;;;;;159.05;59.85;;;3.10;90.90;;;;;;4908918;29;20051;-69
2022/03/23 07:19:28;;;;;;;154.30;59.05;;;3.20;90.90;;;;;;4926432;29;20047;-68
2022/03/23 07:21:56;;;;;;;158.27;62.22;;;3.20;90.90;;;;;;4916791;29;20284;-68
2022/03/23 07:24:24;;;;;;;150.25;61.60;;;3.30;90.90;;;;;;4924500;29;20071;-68
2022/03/23 07:26:52;;;;;;;158.77;60.95;;;3.30;90.80;;;;;;4926106;29;20039;-68
2022/03/23 07:29:40;;;;;;;162.82;61.60;;;3.40;90.80;;;;;;4926177;29;20051;-69
2022/03/23 07:32:09;;;;;;;142.35;58.13;;;3.50;90.90;;;;;;4928966;29;20048;-69
2022/03/23 07:34:37;;;;;;;150.35;61.05;;;3.60;90.80;;;;;;4893967;29;20070;-68
2022/03/23 07:37:04;;;;;;;147.60;59.75;;;3.70;90.80;;;;;;4927195;29;20047;-69
2022/03/23 07:39:32;;;;;;;152.38;62.35;;;3.80;90.70;;;;;;4933235;29;20094;-69
2022/03/23 07:42:02;;;;;;;153.95;62.72;;;3.80;90.70;;;;;;4930944;29;20055;-69
2022/03/23 07:44:34;;;;;;;153.02;64.70;;;4.00;90.70;;;;;;4905776;29;20055;-69
2022/03/23 07:47:07;;;;;;;163.60;66.95;;;4.00;90.70;;;;;;4922912;29;20066;-69
2022/03/23 07:49:34;;;;;;;164.10;65.03;;;4.20;90.70;;;;;;4911235;29;20418;-69
2022/03/23 07:52:03;;;;;;;200.18;73.55;;;4.30;90.70;;;;;;4931567;29;20410;-69
2022/03/23 07:54:31;;;;;;;185.27;71.93;;;4.50;90.70;;;;;;4915662;29;20056;-69
2022/03/23 07:56:59;;;;;;;201.07;77.32;;;4.60;90.60;;;;;;4929192;29;20058;-70
2022/03/23 07:59:27;;;;;;;175.73;71.30;;;4.70;90.50;;;;;;4926612;29;20070;-70
2022/03/23 08:01:54;;;;;;;173.52;71.40;;;4.90;90.50;;;;;;4921607;29;20066;-70
2022/03/23 08:04:22;;;;;;;162.77;69.15;;;5.00;90.60;;;;;;4913808;29;20066;-69
2022/03/23 08:06:50;;;;;;;148.70;68.95;;;5.30;90.50;;;;;;4933345;29;20062;-69
2022/03/23 08:09:17;;;;;;;133.77;61.20;;;5.40;90.40;;;;;;4929967;29;20051;-69
2022/03/23 08:11:45;;;;;;;131.35;59.75;;;5.60;90.40;;;;;;4930269;29;20066;-70
2022/03/23 08:14:13;;;;;;;123.53;58.75;;;5.80;90.30;;;;;;4931098;29;20054;-69
2022/03/23 08:16:40;;;;;;;123.30;57.58;;;5.90;90.30;;;;;;4924605;29;20114;-69
2022/03/23 08:19:08;;;;;;;134.73;63.00;;;6.00;90.20;;;;;;4918873;29;20051;-69
2022/03/23 08:21:36;;;;;;;110.80;55.20;;;6.20;90.20;;;;;;4931252;29;20387;-70
2022/03/23 08:24:04;;;;;;;108.18;54.83;;;6.30;90.20;;;;;;4913734;29;20407;-69
2022/03/23 08:26:31;;;;;;;195.02;95.75;;;6.40;90.10;;;;;;4932335;29;20602;-69
2022/03/23 08:28:59;;;;;;;133.30;66.07;;;6.60;90.10;;;;;;4913804;29;20048;-70
2022/03/23 08:31:27;;;;;;;117.32;58.13;;;6.70;90.00;;;;;;4932709;29;20063;-69
2022/03/23 08:33:54;;;;;;;125.75;64.60;;;6.80;90.00;;;;;;4932941;29;20074;-69
2022/03/23 08:36:22;;;;;;;98.20;50.85;;;7.00;89.90;;;;;;4932464;29;20055;-69
2022/03/23 08:38:50;;;;;;;88.50;45.20;;;7.20;89.90;;;;;;4932412;29;20052;-70
2022/03/23 08:41:18;;;;;;;84.72;43.03;;;7.40;89.80;;;;;;4932421;29;20051;-69
2022/03/23 08:43:46;;;;;;;81.00;40.78;;;7.70;89.60;;;;;;4915604;29;20047;-70
2022/03/23 08:46:14;;;;;;;82.55;41.80;;;7.90;89.30;;;;;;4914898;29;20071;-70
2022/03/23 08:48:42;;;;;;;71.78;39.42;;;8.00;89.00;;;;;;4930108;29;20060;-70
2022/03/23 08:51:11;;;;;;;78.00;40.63;;;8.30;88.50;;;;;;4932728;29;20056;-70
2022/03/23 08:53:42;;;;;;;75.50;38.80;;;8.50;88.10;;;;;;4915444;29;20063;-70
2022/03/23 08:56:13;;;;;;;74.70;38.35;;;8.60;87.60;;;;;;4931884;29;20072;-70
2022/03/23 08:58:49;;;;;;;75.35;37.75;;;8.80;87.20;;;;;;4931586;29;20945;-70
2022/03/23 09:01:17;;;;;;;73.07;38.80;;;9.00;86.70;;;;;;4932682;29;20052;-70
2022/03/23 09:03:46;;;;;;;73.63;38.45;;;9.20;86.20;;;;;;4915380;29;20479;-70
2022/03/23 09:06:13;;;;;;;68.45;36.42;;;9.30;85.60;;;;;;4932375;29;20055;-68
2022/03/23 09:08:41;;;;;;;64.05;35.97;;;9.50;85.10;;;;;;4932357;29;20044;-68
2022/03/23 09:11:09;;;;;;;70.00;36.10;;;9.70;84.20;;;;;;4930951;29;20569;-69
2022/03/23 09:13:36;;;;;;;66.72;36.67;;;9.80;83.50;;;;;;4930989;29;20533;-68
2022/03/23 09:16:04;;;;;;;64.03;36.17;;;10.00;82.80;;;;;;4931352;29;20520;-69
2022/03/23 09:18:32;;;;;;;64.90;34.50;;;10.20;82.20;;;;;;4932040;29;20081;-68
2022/03/23 09:20:59;;;;;;;66.05;36.22;;;10.40;81.30;;;;;;4932300;29;20066;-69
2022/03/23 09:23:32;;;;;;;63.20;35.70;;;10.60;80.50;;;;;;4932187;29;20051;-68
2022/03/23 09:26:01;;;;;;;70.80;37.60;;;10.80;79.30;;;;;;4932160;29;20565;-69
2022/03/23 09:28:29;;;;;;;63.80;36.38;;;11.10;78.20;;;;;;4931333;29;20064;-69
2022/03/23 09:30:59;;;;;;;65.00;35.53;;;11.30;77.30;;;;;;4931407;29;20051;-69
2022/03/23 09:33:28;;;;;;;60.25;34.83;;;11.50;76.70;;;;;;4930929;29;20509;-69
2022/03/23 09:35:55;;;;;;;66.53;35.67;;;11.70;75.90;;;;;;4931863;29;20051;-69
2022/03/23 09:38:23;;;;;;;65.03;36.97;;;11.80;75.00;;;;;;4931107;29;20509;-69
2022/03/23 09:40:52;;;;;;;63.50;35.42;;;11.90;74.30;;;;;;4931801;29;20058;-69
2022/03/23 09:43:22;;;;;;;64.35;36.10;;;12.00;73.50;;;;;;4914320;29;20060;-69
2022/03/23 09:45:51;;;;;;;58.95;32.65;;;12.20;73.00;;;;;;4912860;29;20493;-69
2022/03/23 09:48:21;;;;;;;58.30;34.53;;;12.30;72.40;;;;;;4929122;29;20052;-70
2022/03/23 09:50:52;;;;;;;60.53;35.30;;;12.40;70.90;;;;;;4930022;29;20044;-69
2022/03/23 09:53:23;;;;;;;63.42;34.63;;;12.50;70.10;;;;;;4912847;29;20066;-70
2022/03/23 09:55:52;;;;;;;61.83;35.05;;;12.60;69.90;;;;;;4912971;29;20052;-69
2022/03/23 09:58:20;;;;;;;60.85;35.63;;;12.70;69.40;;;;;;4928629;29;20056;-69
2022/03/23 10:00:49;;;;;;;56.42;34.72;;;12.80;69.20;;;;;;4930570;29;20063;-69
2022/03/23 10:03:43;;;;;;;60.55;33.67;;;12.80;68.60;;;;;;4931352;29;20047;-69
2022/03/23 10:06:46;;;;;;;57.25;34.80;;;12.90;68.30;;;;;;4901922;29;20063;-68
2022/03/23 10:09:26;;;;;;;58.67;33.33;;;13.00;68.10;;;;;;4929891;29;20043;-71
2022/03/23 10:12:22;;;;;;;63.53;35.00;;;13.20;65.90;;;;;;4912202;29;20066;-69
2022/03/23 10:15:11;;;;;;;61.05;33.70;;;13.30;65.70;;;;;;4929246;29;20063;-69
2022/03/23 10:17:44;;;;;;;62.97;35.53;;;13.40;65.80;;;;;;4929495;29;20052;-69
2022/03/23 10:20:12;;;;;;;;;;;13.50;65.30;;;;;;4930535;29;20414;-69
2022/03/23 10:22:52;;;;;;;55.00;33.47;;;13.60;64.30;;;;;;4911524;29;19926;-69
2022/03/23 10:25:26;;;;;;;54.65;32.97;;;13.80;64.30;;;;;;4913837;29;20043;-69
2022/03/23 10:27:55;;;;;;;55.72;33.38;;;13.80;63.60;;;;;;4930058;29;20502;-69
2022/03/23 10:30:33;;;;;;;51.90;31.88;;;13.90;63.40;;;;;;4930985;29;20090;-69
2022/03/23 10:33:01;;;;;;;55.40;31.85;;;14.00;62.90;;;;;;4913520;29;20055;-69
2022/03/23 10:35:37;;;;;;;56.67;33.10;;;14.20;61.30;;;;;;4930960;29;20048;-70
2022/03/23 10:38:21;;;;;;;53.20;31.77;;;14.30;61.70;;;;;;4930232;29;20059;-69
2022/03/23 10:40:51;;;;;;;56.58;31.88;;;14.40;61.20;;;;;;4912413;29;20055;-70
2022/03/23 10:43:23;;;;;;;53.33;32.35;;;14.60;59.50;;;;;;4913646;29;20055;-70
2022/03/23 10:45:51;;;;;;;52.28;32.03;;;14.80;59.30;;;;;;4930583;29;20051;-69
2022/03/23 10:48:19;;;;;;;51.28;31.70;;;14.80;59.00;;;;;;4930649;29;20067;-69
2022/03/23 10:50:56;;;;;;;55.22;32.85;;;14.90;58.10;;;;;;4930501;29;20058;-69
2022/03/23 10:53:32;;;;;;;59.10;32.08;;;15.10;57.80;;;;;;4930071;29;20052;-69
2022/03/23 10:56:01;;;;;;;53.53;33.63;;;15.20;58.10;;;;;;4930173;29;20102;-70
2022/03/23 10:58:29;;;;;;;52.00;32.95;;;15.40;57.40;;;;;;4931166;29;20047;-69
2022/03/23 11:01:03;;;;;;;55.58;30.85;;;15.50;57.50;;;;;;4931503;29;20351;-69
2022/03/23 11:03:48;;;;;;;46.83;29.05;;;15.70;56.90;;;;;;4930685;29;20062;-69
2022/03/23 11:06:27;;;;;;;48.42;30.23;;;15.90;56.30;;;;;;4912256;29;20056;-70
2022/03/23 11:15:45;;;;;;;49.45;30.83;;;16.10;55.60;;;;;;4918954;29;20423;-69
2022/03/23 11:17:47;;;;;;;46.10;28.15;;;16.60;53.90;;;;;;4931386;29;20055;-69
2022/03/23 11:20:18;;;;;;;47.63;27.45;;;16.80;53.10;;;;;;4930080;29;20060;-68
2022/03/23 11:22:46;;;;;;;43.00;26.30;;;16.80;51.20;;;;;;4929889;29;20044;-70
2022/03/23 11:25:21;;;;;;;45.83;27.50;;;16.90;50.40;;;;;;4931310;29;20060;-68
2022/03/23 11:27:48;;;;;;;41.95;26.52;;;17.00;49.60;;;;;;4930085;29;20047;-68
2022/03/23 11:30:16;;;;;;;41.35;26.42;;;17.10;49.10;;;;;;4931081;29;20420;-69
2022/03/23 11:32:44;;;;;;;39.72;26.58;;;17.20;47.90;;;;;;4930923;29;20048;-69
2022/03/23 11:35:12;;;;;;;40.55;24.85;;;17.30;48.10;;;;;;4913763;29;20410;-69
2022/03/23 11:37:43;;;;;;;41.65;26.40;;;17.30;47.80;;;;;;4930089;29;20822;-69
2022/03/23 11:40:12;;;;;;;41.47;26.00;;;17.50;47.70;;;;;;4929244;29;20080;-69
2022/03/23 11:42:40;;;;;;;39.60;25.80;;;17.60;47.50;;;;;;4928583;29;20056;-69
2022/03/23 11:45:12;;;;;;;42.08;26.23;;;17.80;46.70;;;;;;4928819;29;20056;-69
2022/03/23 11:47:47;;;;;;;46.63;28.47;;;17.80;46.20;;;;;;4926141;29;20437;-69
2022/03/23 11:50:30;;;;;;;38.78;23.85;;;17.90;45.60;;;;;;4929295;29;20059;-69
2022/03/23 11:53:08;;;;;;;36.90;22.63;;;18.00;45.20;;;;;;4912051;29;20055;-69
2022/03/23 11:55:40;;;;;;;37.88;23.35;;;18.20;44.80;;;;;;4928259;29;20062;-69
2022/03/23 11:58:22;;;;;;;35.60;23.42;;;18.40;43.40;;;;;;4930064;29;20140;-68
2022/03/23 12:01:05;;;;;;;37.90;23.55;;;18.60;42.30;;;;;;4913631;29;20063;-68
2022/03/23 12:03:57;;;;;;;41.17;24.75;;;18.60;42.30;;;;;;4930072;29;20062;-68
2022/03/23 12:06:39;;;;;;;39.55;26.23;;;18.60;42.10;;;;;;4911855;29;20374;-68
2022/03/23 12:09:08;;;;;;;40.40;27.10;;;18.80;43.20;;;;;;4911697;29;20513;-68
2022/03/23 12:11:44;;;;;;;32.90;21.38;;;19.00;43.60;;;;;;4911707;29;20561;-69
2022/03/23 12:14:39;;;;;;;34.17;23.15;;;19.20;40.80;;;;;;4911075;29;20052;-68
2022/03/23 12:17:11;;;;;;;39.25;26.23;;;19.30;38.80;;;;;;4927804;29;20056;-68
2022/03/23 12:19:57;;;;;;;39.65;25.40;;;19.50;39.80;;;;;;4930270;29;20067;-69
2022/03/23 12:22:34;;;;;;;38.72;26.30;;;19.70;40.00;;;;;;4932289;29;20048;-68
2022/03/23 12:25:25;;;;;;;44.95;28.35;;;20.10;40.50;;;;;;4932940;29;20060;-68
2022/03/23 12:28:19;;;;;;;45.38;26.92;;;20.50;40.60;;;;;;4931056;29;20382;-68
2022/03/23 12:30:58;;;;;;;33.40;22.80;;;20.90;39.10;;;;;;4916720;29;20059;-68
2022/03/23 12:33:28;;;;;;;34.15;22.20;;;21.30;36.80;;;;;;4933682;29;20059;-68
2022/03/23 12:36:03;;;;;;;32.30;23.27;;;21.30;36.90;;;;;;4933117;29;20070;-68
2022/03/23 12:38:32;;;;;;;32.67;21.50;;;21.70;36.60;;;;;;4933581;29;20065;-68
2022/03/23 12:41:06;;;;;;;34.30;22.75;;;21.90;36.20;;;;;;4933340;29;20058;-68
2022/03/23 12:43:37;;;;;;;33.13;22.73;;;22.30;35.50;;;;;;4933426;29;20068;-68
2022/03/23 12:46:16;;;;;;;24.42;19.38;;;22.50;35.20;;;;;;4916713;29;20101;-68
2022/03/23 12:57:50;;;;;;;31.58;22.05;;;23.20;33.00;;;;;;4922283;29;20560;-68
2022/03/23 13:00:29;;;;;;;37.70;24.45;;;23.30;33.20;;;;;;4931194;29;20048;-69
2022/03/23 13:03:06;;;;;;;30.40;21.20;;;23.70;32.90;;;;;;4932765;29;20048;-68
2022/03/23 13:05:59;;;;;;;31.02;21.30;;;24.00;30.90;;;;;;4931867;29;20051;-68
2022/03/23 13:08:30;;;;;;;34.00;23.02;;;24.10;29.90;;;;;;4933425;29;20047;-68